Avon, New York
Current Conditions -  °F | °C
As of 11:16 PM on Tuesday 21 Oct 2014 (Local Time) from KROC Reporting Station
Light Rain Light Rain  
Wind Chill: 40°   Ceiling: 1000
Heat Index: 47°   Visibility: 8mi
Dew Point: 44°   Wind: 16mph
Humidity: 90%   Direction: 30°NNE
Pressure: 30.08"   Gusts: 24mph
Location:  42.91°N, 77.75°W
Report Text: KROC 220316Z 03014G21KT 8SM -RA OVC010 08/07 A3008 RMK AO2 CIG 007V014 P0001 T00830067
Loading
Personal Weather Stations






























Interactive Weather Map New forecast layout! Learn more

10-Day Weather Forecast

Advertisements
Track Severe Weather on mobile